Time;durP1;ratioP1;P1;durP2;ratioP2;P2;SDS_P1;SDS_P2;PMS_P1;PMS_P2;Temp;Humidity;BMP_temperature;BMP_pressure;BME280_temperature;BME280_humidity;BME280_pressure;Samples;Min_cycle;Max_cycle;Signal;HPM_P1;HPM_P2
2020/12/09 00:04:18;;;;;;;0.20;0.20;;;10.00;99.90;;;;;;10290885;28;20232;-76
2020/12/09 00:09:22;;;;;;;0.27;0.17;;;10.30;99.90;;;;;;10290792;28;20279;-77
2020/12/09 00:14:24;;;;;;;0.20;0.10;;;10.30;99.90;;;;;;10290870;28;20196;-78
2020/12/09 00:19:27;;;;;;;0.20;0.10;;;10.30;99.90;;;;;;10290594;28;20271;-77
2020/12/09 00:24:30;;;;;;;0.27;0.27;;;10.30;99.90;;;;;;10289879;28;20277;-76
2020/12/09 00:29:33;;;;;;;1.37;0.53;;;10.10;99.90;;;;;;10290277;28;20743;-74
2020/12/09 00:34:35;;;;;;;0.23;0.20;;;10.20;99.90;;;;;;10272537;28;20501;-74
2020/12/09 00:39:38;;;;;;;0.57;0.27;;;10.20;99.90;;;;;;10253389;28;20285;-76
2020/12/09 00:44:41;;;;;;;0.63;0.63;;;10.20;99.90;;;;;;10249480;29;20236;-75
2020/12/09 00:50:27;;;;;;;0.20;0.10;;;10.10;99.90;;;;;;10249644;28;20201;-78
2020/12/09 00:55:22;;;;;;;0.43;0.33;;;10.00;99.90;;;;;;10247411;28;20199;-79
2020/12/09 01:00:24;;;;;;;3.10;0.70;;;9.90;99.90;;;;;;10289097;23;20250;-68
2020/12/09 01:05:27;;;;;;;0.20;0.10;;;10.00;99.90;;;;;;10347322;28;20547;-68
2020/12/09 01:10:30;;;;;;;0.20;0.20;;;10.00;99.90;;;;;;10349598;28;20201;-68
2020/12/09 01:15:32;;;;;;;0.90;0.40;;;10.00;99.90;;;;;;10347992;28;20202;-67
2020/12/09 01:20:35;;;;;;;0.20;0.10;;;10.00;99.90;;;;;;10346235;28;20628;-68
2020/12/09 01:25:39;;;;;;;0.20;0.20;;;10.00;99.90;;;;;;10345952;28;20202;-67
2020/12/09 01:30:41;;;;;;;0.20;0.20;;;10.10;99.90;;;;;;10345230;28;20202;-67
2020/12/09 01:35:44;;;;;;;0.20;0.10;;;10.10;99.90;;;;;;10349251;28;20199;-67
2020/12/09 01:40:49;;;;;;;0.20;0.10;;;10.00;99.90;;;;;;10348474;28;20289;-68
2020/12/09 01:45:52;;;;;;;0.20;0.10;;;9.80;99.90;;;;;;10347679;28;20192;-67
2020/12/09 01:50:55;;;;;;;0.20;0.10;;;9.80;99.90;;;;;;10348871;28;20743;-68
2020/12/09 01:55:58;;;;;;;0.20;0.10;;;9.80;99.90;;;;;;10354007;28;20207;-68
2020/12/09 02:01:01;;;;;;;0.57;0.30;;;9.70;99.90;;;;;;10352472;28;20226;-68
2020/12/09 02:06:04;;;;;;;0.20;0.13;;;9.50;99.90;;;;;;10346663;28;20188;-67
2020/12/09 02:11:07;;;;;;;0.40;0.30;;;9.40;99.90;;;;;;10347754;28;20187;-68
2020/12/09 02:16:10;;;;;;;0.20;0.20;;;9.40;99.90;;;;;;10345833;28;20453;-68
2020/12/09 02:21:13;;;;;;;0.20;0.10;;;9.30;99.90;;;;;;10346308;28;20227;-68
2020/12/09 02:26:16;;;;;;;0.20;0.10;;;9.20;99.90;;;;;;10346612;28;20191;-67
2020/12/09 02:31:19;;;;;;;0.20;0.20;;;9.20;99.90;;;;;;10345343;28;20197;-68
2020/12/09 02:36:21;;;;;;;0.20;0.10;;;9.00;99.90;;;;;;10346398;28;20206;-68
2020/12/09 02:41:25;;;;;;;0.20;0.10;;;9.00;99.90;;;;;;10344361;28;20225;-67
2020/12/09 02:46:27;;;;;;;0.20;0.10;;;9.00;99.90;;;;;;10345898;28;20555;-67
2020/12/09 02:51:30;;;;;;;0.20;0.10;;;8.70;99.90;;;;;;10344582;28;20192;-67
2020/12/09 02:56:33;;;;;;;0.20;0.10;;;8.50;99.90;;;;;;10345675;28;20542;-68
2020/12/09 03:01:36;;;;;;;0.20;0.10;;;8.30;99.90;;;;;;10344486;28;20229;-68
2020/12/09 03:06:38;;;;;;;0.20;0.10;;;8.40;99.90;;;;;;10345088;28;20556;-67
2020/12/09 03:11:42;;;;;;;0.30;0.30;;;8.40;99.90;;;;;;10333673;28;20220;-68
2020/12/09 03:16:45;;;;;;;0.20;0.20;;;8.30;99.90;;;;;;10328264;28;20720;-67
2020/12/09 03:21:47;;;;;;;0.20;0.10;;;8.40;99.90;;;;;;10333249;28;20223;-69
2020/12/09 03:26:53;;;;;;;0.20;0.10;;;8.40;99.90;;;;;;10334453;28;20230;-67
2020/12/09 03:31:55;;;;;;;0.20;0.10;;;8.30;99.90;;;;;;10332004;28;20658;-68
2020/12/09 03:36:57;;;;;;;0.23;0.20;;;8.10;99.90;;;;;;10332696;28;20198;-68
2020/12/09 03:42:01;;;;;;;1.53;0.33;;;8.10;99.90;;;;;;10332304;28;20227;-68
2020/12/09 03:47:05;;;;;;;0.20;0.10;;;7.90;99.90;;;;;;10331952;28;20204;-69
2020/12/09 03:52:08;;;;;;;0.20;0.10;;;7.80;99.90;;;;;;10330686;28;20195;-68
2020/12/09 03:57:11;;;;;;;0.20;0.10;;;7.70;99.90;;;;;;10333045;28;20225;-68
2020/12/09 04:02:14;;;;;;;0.20;0.20;;;7.50;99.90;;;;;;10365294;23;20235;-78
2020/12/09 04:07:16;;;;;;;0.20;0.20;;;7.50;99.90;;;;;;10331498;28;20192;-77
2020/12/09 04:12:23;;;;;;;0.20;0.10;;;7.50;99.90;;;;;;10331536;28;20196;-78
2020/12/09 04:17:25;;;;;;;0.20;0.20;;;7.50;99.90;;;;;;10330893;28;20200;-77
2020/12/09 04:22:28;;;;;;;0.50;0.30;;;7.70;99.90;;;;;;10331702;28;21066;-78
2020/12/09 04:27:31;;;;;;;0.20;0.10;;;7.80;99.90;;;;;;10330637;28;20196;-79
2020/12/09 04:32:34;;;;;;;0.20;0.10;;;7.50;99.90;;;;;;10331166;28;20606;-78
2020/12/09 04:37:37;;;;;;;11.13;0.57;;;7.50;99.90;;;;;;10330680;28;20219;-75
2020/12/09 04:42:55;;;;;;;0.40;0.23;;;7.50;99.90;;;;;;10330342;28;20246;-78
2020/12/09 04:48:08;;;;;;;9.30;0.70;;;7.40;99.90;;;;;;10330257;28;20229;-77
2020/12/09 04:53:23;;;;;;;0.20;0.10;;;7.30;99.90;;;;;;10330534;28;20203;-77
2020/12/09 04:58:41;;;;;;;8.43;0.53;;;7.20;99.90;;;;;;10328570;28;20327;-77
2020/12/09 05:03:45;;;;;;;0.20;0.10;;;7.20;99.90;;;;;;10328673;28;20229;-77
2020/12/09 05:08:52;;;;;;;0.20;0.10;;;7.20;99.90;;;;;;10329176;28;20233;-77
2020/12/09 05:13:57;;;;;;;0.33;0.23;;;7.20;99.90;;;;;;10329644;28;20195;-78
2020/12/09 05:19:01;;;;;;;1.17;0.47;;;7.10;99.90;;;;;;10328914;28;20199;-77
2020/12/09 05:24:04;;;;;;;0.20;0.10;;;7.20;99.90;;;;;;10328757;28;20657;-77
2020/12/09 05:29:12;;;;;;;0.40;0.30;;;7.20;99.90;;;;;;10329047;28;20290;-79
2020/12/09 05:34:29;;;;;;;0.20;0.10;;;7.10;99.90;;;;;;10332795;28;20561;-76
2020/12/09 05:39:32;;;;;;;11.33;0.67;;;7.00;99.90;;;;;;10327261;28;20218;-77
2020/12/09 05:44:35;;;;;;;0.20;0.10;;;6.90;99.90;;;;;;10327796;28;20254;-77
2020/12/09 05:49:39;;;;;;;0.20;0.20;;;6.90;99.90;;;;;;10326826;28;20187;-76
2020/12/09 05:54:44;;;;;;;0.20;0.10;;;6.70;99.90;;;;;;10327881;28;20195;-77
2020/12/09 05:59:49;;;;;;;0.23;0.23;;;6.70;99.90;;;;;;10327427;28;20220;-76
2020/12/09 06:04:54;;;;;;;0.30;0.20;;;6.70;99.90;;;;;;10327608;28;20219;-77
2020/12/09 06:10:11;;;;;;;0.30;0.20;;;6.80;99.90;;;;;;10324966;28;20647;-76
2020/12/09 06:15:15;;;;;;;0.20;0.10;;;6.80;99.90;;;;;;10327160;28;20281;-75
2020/12/09 06:20:20;;;;;;;0.20;0.10;;;6.80;99.90;;;;;;10326351;28;20213;-76
2020/12/09 06:25:23;;;;;;;0.27;0.20;;;6.70;99.90;;;;;;10328847;28;20223;-78
2020/12/09 06:30:30;;;;;;;0.20;0.10;;;6.80;99.90;;;;;;10327057;28;20198;-81
2020/12/09 06:35:32;;;;;;;0.20;0.10;;;6.90;99.90;;;;;;10324942;28;20197;-77
2020/12/09 06:40:35;;;;;;;0.20;0.10;;;6.90;99.90;;;;;;10325573;28;20200;-76
2020/12/09 06:45:42;;;;;;;0.20;0.10;;;6.90;99.90;;;;;;10325436;28;20249;-76
2020/12/09 06:50:45;;;;;;;0.40;0.40;;;6.90;99.90;;;;;;10325324;28;20199;-79
2020/12/09 06:55:50;;;;;;;0.20;0.10;;;6.80;99.90;;;;;;10332485;28;20202;-80
2020/12/09 07:01:00;;;;;;;0.30;0.30;;;6.90;99.90;;;;;;10333728;28;20262;-79
2020/12/09 07:06:34;;;;;;;0.50;0.50;;;7.00;99.90;;;;;;10332538;28;20196;-82
2020/12/09 07:11:52;;;;;;;0.20;0.10;;;7.00;99.90;;;;;;10333076;28;20199;-80
2020/12/09 07:16:57;;;;;;;0.20;0.10;;;7.10;99.90;;;;;;10332408;28;20217;-80
2020/12/09 07:22:03;;;;;;;0.60;0.33;;;7.30;99.90;;;;;;10331348;28;20231;-72
2020/12/09 07:27:09;;;;;;;0.30;0.30;;;7.50;99.90;;;;;;10331319;28;20289;-76
2020/12/09 07:32:17;;;;;;;0.60;0.57;;;7.50;99.90;;;;;;10329988;28;20284;-74
2020/12/09 07:43:18;;;;;;;0.30;0.20;;;7.70;99.90;;;;;;10291225;28;20251;-77
2020/12/09 07:48:22;;;;;;;0.20;0.20;;;7.90;99.90;;;;;;10290195;28;20204;-74
2020/12/09 07:53:25;;;;;;;0.30;0.30;;;8.10;99.90;;;;;;10292127;28;20665;-76
2020/12/09 07:58:28;;;;;;;0.77;0.43;;;8.20;99.90;;;;;;10297332;28;20200;-76
2020/12/09 08:03:32;;;;;;;0.20;0.10;;;8.40;99.90;;;;;;10300604;28;20748;-74
2020/12/09 08:08:35;;;;;;;0.20;0.17;;;8.60;99.90;;;;;;10288394;28;20274;-69
2020/12/09 08:13:37;;;;;;;0.30;0.30;;;8.80;99.90;;;;;;10288650;28;20638;-75
2020/12/09 08:18:42;;;;;;;0.23;0.23;;;8.80;99.90;;;;;;10289056;28;20212;-77
2020/12/09 08:23:46;;;;;;;0.30;0.30;;;8.70;99.90;;;;;;10287922;28;20216;-72
2020/12/09 08:28:51;;;;;;;0.27;0.27;;;8.60;99.90;;;;;;10288289;28;20232;-75
2020/12/09 08:33:59;;;;;;;0.20;0.20;;;8.90;99.90;;;;;;10290878;28;20224;-75
2020/12/09 08:39:02;;;;;;;0.20;0.10;;;9.00;99.90;;;;;;10296189;28;20183;-77
2020/12/09 08:44:06;;;;;;;0.20;0.20;;;9.10;99.90;;;;;;10292894;28;20237;-77
2020/12/09 08:49:10;;;;;;;0.60;0.40;;;9.00;99.90;;;;;;10327339;28;20489;-76
2020/12/09 08:54:13;;;;;;;0.30;0.30;;;9.40;99.90;;;;;;10305713;28;20231;-76
2020/12/09 08:59:15;;;;;;;0.20;0.20;;;9.80;99.90;;;;;;10294862;28;20197;-73
2020/12/09 09:04:21;;;;;;;0.57;0.50;;;10.20;99.90;;;;;;10286424;28;20246;-74
2020/12/09 09:09:23;;;;;;;0.20;0.20;;;10.10;99.90;;;;;;10287676;28;20683;-73
2020/12/09 09:14:26;;;;;;;1.27;0.50;;;10.20;99.90;;;;;;10309714;28;20218;-73
2020/12/09 09:19:30;;;;;;;0.57;0.57;;;10.30;99.90;;;;;;10321563;28;20192;-75
2020/12/09 09:24:32;;;;;;;0.20;0.10;;;10.70;99.90;;;;;;10301496;28;20314;-70
2020/12/09 09:29:36;;;;;;;38.80;0.77;;;10.80;99.90;;;;;;10322063;28;20200;-72
2020/12/09 09:34:39;;;;;;;1.20;0.90;;;10.80;99.90;;;;;;10322316;28;20227;-73
2020/12/09 09:39:43;;;;;;;1.53;0.40;;;11.10;99.90;;;;;;10321704;28;20195;-75
2020/12/09 09:44:46;;;;;;;0.40;0.37;;;11.20;99.90;;;;;;10321252;28;20703;-76
2020/12/09 09:49:50;;;;;;;0.93;0.93;;;11.30;99.90;;;;;;10301146;28;20283;-76
2020/12/09 09:54:52;;;;;;;4.07;1.20;;;11.60;99.90;;;;;;10294662;28;20200;-75
2020/12/09 09:59:55;;;;;;;0.20;0.10;;;11.80;99.90;;;;;;10286021;28;20590;-73
2020/12/09 10:04:58;;;;;;;0.27;0.27;;;11.80;99.90;;;;;;10317882;28;20262;-74
2020/12/09 10:10:03;;;;;;;0.23;0.17;;;11.70;99.90;;;;;;10318526;28;20203;-74
2020/12/09 10:15:06;;;;;;;11.23;0.47;;;12.10;99.90;;;;;;10312449;28;20205;-70
2020/12/09 10:20:09;;;;;;;0.70;0.47;;;12.30;99.90;;;;;;10294288;28;20563;-73
2020/12/09 10:25:12;;;;;;;1.53;0.33;;;13.20;99.90;;;;;;10284886;28;20278;-73
2020/12/09 10:30:14;;;;;;;1.13;0.63;;;13.40;99.90;;;;;;10288900;28;20204;-73
2020/12/09 10:35:18;;;;;;;1.27;0.63;;;12.80;99.90;;;;;;10287443;28;20222;-74
2020/12/09 10:40:21;;;;;;;2.67;0.90;;;12.00;99.90;;;;;;10293677;28;20246;-73
2020/12/09 10:45:23;;;;;;;0.20;0.20;;;11.90;99.90;;;;;;10288726;28;20231;-74
2020/12/09 10:50:27;;;;;;;0.20;0.20;;;12.10;99.90;;;;;;10289220;28;20614;-73
2020/12/09 10:55:30;;;;;;;0.70;0.60;;;12.00;99.90;;;;;;10289889;28;20287;-71
2020/12/09 11:00:33;;;;;;;12.33;1.90;;;11.90;99.90;;;;;;10296255;28;20322;-72
2020/12/09 11:05:36;;;;;;;0.53;0.43;;;11.60;99.90;;;;;;10328411;28;20686;-76
2020/12/09 11:10:39;;;;;;;1.70;1.43;;;11.90;99.90;;;;;;10327214;28;20189;-77
2020/12/09 11:15:42;;;;;;;1.07;0.87;;;11.50;99.90;;;;;;10303190;28;20203;-74
2020/12/09 11:20:46;;;;;;;1.80;0.40;;;11.30;99.90;;;;;;10288288;28;20207;-70
2020/12/09 11:25:49;;;;;;;1.10;0.50;;;11.30;99.90;;;;;;10287845;28;20235;-72
2020/12/09 11:30:51;;;;;;;0.43;0.40;;;11.90;99.90;;;;;;10287759;28;20299;-73
2020/12/09 11:35:55;;;;;;;0.20;0.10;;;12.40;99.90;;;;;;10287322;28;20196;-72
2020/12/09 11:40:58;;;;;;;1.33;0.40;;;12.50;99.90;;;;;;10286500;28;20215;-73
2020/12/09 11:46:01;;;;;;;0.20;0.20;;;12.20;99.90;;;;;;10284967;28;20704;-74
2020/12/09 11:51:05;;;;;;;0.40;0.30;;;12.20;99.90;;;;;;10285540;28;20200;-74
2020/12/09 11:56:07;;;;;;;19.50;0.70;;;12.00;99.90;;;;;;10286602;28;20685;-77
2020/12/09 12:01:10;;;;;;;2.20;0.77;;;12.00;99.90;;;;;;10287716;28;20314;-77
2020/12/09 12:06:22;;;;;;;0.47;0.37;;;12.00;99.90;;;;;;10286489;28;20232;-78
2020/12/09 12:11:28;;;;;;;0.23;0.13;;;12.30;99.90;;;;;;10303008;28;20204;-74
2020/12/09 12:16:30;;;;;;;0.97;0.60;;;12.60;99.90;;;;;;10289568;28;20231;-70
2020/12/09 12:21:34;;;;;;;0.50;0.50;;;12.90;99.90;;;;;;10285563;28;20559;-74
2020/12/09 12:26:37;;;;;;;1.80;0.20;;;13.40;99.90;;;;;;10288233;28;20228;-77
2020/12/09 12:31:39;;;;;;;0.80;0.30;;;13.70;99.90;;;;;;10289465;28;20392;-76
2020/12/09 12:36:43;;;;;;;0.20;0.20;;;14.10;99.90;;;;;;10286541;28;20256;-72
2020/12/09 12:41:45;;;;;;;0.27;0.27;;;14.70;99.90;;;;;;10286959;28;20696;-71
2020/12/09 12:46:48;;;;;;;0.60;0.60;;;14.80;99.90;;;;;;10286188;28;20200;-74
2020/12/09 12:51:52;;;;;;;0.20;0.20;;;14.60;99.90;;;;;;10286087;28;20666;-74
2020/12/09 12:56:55;;;;;;;0.20;0.10;;;14.50;99.90;;;;;;10285654;28;20291;-71
2020/12/09 13:01:59;;;;;;;0.90;0.60;;;14.70;99.90;;;;;;10313643;28;20616;-74
2020/12/09 13:07:05;;;;;;;0.67;0.30;;;14.70;99.90;;;;;;10284243;28;20208;-72
2020/12/09 13:12:07;;;;;;;0.20;0.10;;;14.90;99.90;;;;;;10287104;28;20196;-73
2020/12/09 13:17:10;;;;;;;0.63;0.33;;;14.60;99.90;;;;;;10325810;28;20203;-70
2020/12/09 13:22:13;;;;;;;0.30;0.30;;;14.70;99.90;;;;;;10285155;28;20322;-70
2020/12/09 13:27:18;;;;;;;0.50;0.20;;;14.80;99.90;;;;;;10282918;28;20599;-69
2020/12/09 13:32:21;;;;;;;0.83;0.50;;;14.80;99.90;;;;;;10281526;28;20196;-72
2020/12/09 13:37:24;;;;;;;0.30;0.30;;;14.70;99.90;;;;;;10282671;28;20620;-70
2020/12/09 13:42:27;;;;;;;0.40;0.30;;;14.80;99.90;;;;;;10283996;28;20224;-70
2020/12/09 13:47:29;;;;;;;0.20;0.10;;;14.90;99.90;;;;;;10286130;28;20287;-69
2020/12/09 13:52:34;;;;;;;0.30;0.20;;;15.10;99.90;;;;;;10324290;28;20216;-72
2020/12/09 13:57:37;;;;;;;0.40;0.30;;;15.40;99.90;;;;;;10323979;28;20195;-72
2020/12/09 14:02:39;;;;;;;0.70;0.63;;;15.90;99.90;;;;;;10312589;28;20669;-70
2020/12/09 14:07:43;;;;;;;0.27;0.20;;;16.30;99.90;;;;;;10296259;28;20290;-71
2020/12/09 14:12:46;;;;;;;0.37;0.20;;;16.50;99.90;;;;;;10307155;28;20198;-71
2020/12/09 14:17:48;;;;;;;16.87;0.83;;;16.40;99.90;;;;;;10323191;28;20196;-72
2020/12/09 14:22:52;;;;;;;0.20;0.20;;;16.60;99.90;;;;;;10323916;28;20219;-73
2020/12/09 14:27:55;;;;;;;0.20;0.10;;;16.60;99.90;;;;;;10323449;28;20518;-72
2020/12/09 14:32:58;;;;;;;0.30;0.20;;;16.70;99.90;;;;;;10324264;28;20291;-70
2020/12/09 14:38:01;;;;;;;0.37;0.30;;;16.40;99.90;;;;;;10312526;28;20280;-70
2020/12/09 14:43:05;;;;;;;0.20;0.20;;;15.70;99.90;;;;;;10318108;28;20314;-70
2020/12/09 14:48:07;;;;;;;0.20;0.20;;;14.70;99.90;;;;;;10317914;28;20206;-70
2020/12/09 14:53:11;;;;;;;9.60;0.47;;;14.40;99.90;;;;;;10318479;28;20286;-71
2020/12/09 14:58:14;;;;;;;0.20;0.10;;;14.60;99.90;;;;;;10298995;28;20563;-70
2020/12/09 15:03:17;;;;;;;0.40;0.20;;;14.60;99.90;;;;;;10277794;28;20658;-71
2020/12/09 15:08:21;;;;;;;0.20;0.10;;;14.60;99.90;;;;;;10303444;28;20676;-69
2020/12/09 15:13:23;;;;;;;5.77;0.50;;;14.70;99.90;;;;;;10309980;28;20196;-70
2020/12/09 15:18:26;;;;;;;0.20;0.20;;;14.80;99.90;;;;;;10285926;28;20196;-69
2020/12/09 15:23:30;;;;;;;0.20;0.13;;;15.00;99.90;;;;;;10285016;28;20929;-69
2020/12/09 15:28:33;;;;;;;0.20;0.20;;;14.90;99.90;;;;;;10291489;28;20209;-70
2020/12/09 15:33:35;;;;;;;1.27;0.33;;;14.70;99.90;;;;;;10305284;28;20215;-71
2020/12/09 15:38:39;;;;;;;13.43;0.83;;;14.40;99.90;;;;;;10324408;28;20286;-71
2020/12/09 15:43:42;;;;;;;0.30;0.30;;;14.00;99.90;;;;;;10327485;28;20571;-71
2020/12/09 15:48:46;;;;;;;0.30;0.20;;;13.20;99.90;;;;;;10328677;28;20724;-71
2020/12/09 15:53:50;;;;;;;0.30;0.30;;;12.60;99.90;;;;;;10328697;28;20723;-70
2020/12/09 15:58:52;;;;;;;0.20;0.10;;;12.30;99.90;;;;;;10328451;28;20254;-73
2020/12/09 16:03:55;;;;;;;0.43;0.20;;;12.10;99.90;;;;;;10326889;28;20250;-72
2020/12/09 16:08:58;;;;;;;0.83;0.40;;;12.00;99.90;;;;;;10322462;28;20549;-74
2020/12/09 16:14:01;;;;;;;0.20;0.10;;;11.90;99.90;;;;;;10288450;28;20287;-72
2020/12/09 16:19:05;;;;;;;0.20;0.20;;;11.80;99.90;;;;;;10282230;28;20665;-71
2020/12/09 16:24:09;;;;;;;1.50;0.20;;;11.70;99.90;;;;;;10282704;28;20303;-72
2020/12/09 16:29:11;;;;;;;0.20;0.10;;;11.70;99.90;;;;;;10294338;28;20590;-76
2020/12/09 16:34:14;;;;;;;0.37;0.30;;;11.60;99.90;;;;;;10322127;28;20199;-74
2020/12/09 16:39:18;;;;;;;0.20;0.20;;;11.50;99.90;;;;;;10322355;28;20203;-74
2020/12/09 16:44:21;;;;;;;0.20;0.20;;;11.50;99.90;;;;;;10321386;28;20326;-73
2020/12/09 16:49:23;;;;;;;0.20;0.10;;;11.50;99.90;;;;;;10323445;28;20500;-73
2020/12/09 16:54:27;;;;;;;0.20;0.20;;;11.50;99.90;;;;;;10322620;28;20200;-71
2020/12/09 16:59:29;;;;;;;1.27;0.70;;;11.50;99.90;;;;;;10299126;28;20223;-74
2020/12/09 17:04:32;;;;;;;0.20;0.10;;;11.40;99.90;;;;;;10284664;28;20227;-73
2020/12/09 17:09:35;;;;;;;0.20;0.10;;;11.40;99.90;;;;;;10283528;28;20315;-73
2020/12/09 17:14:38;;;;;;;0.60;0.40;;;11.30;99.90;;;;;;10305606;28;20285;-73
2020/12/09 17:19:41;;;;;;;0.20;0.20;;;11.30;99.90;;;;;;10325964;28;20585;-74
2020/12/09 17:24:44;;;;;;;0.77;0.63;;;11.30;99.90;;;;;;10324905;28;20227;-72
2020/12/09 17:29:47;;;;;;;0.87;0.60;;;11.20;99.90;;;;;;10324525;28;20307;-71
2020/12/09 17:34:49;;;;;;;0.20;0.20;;;11.20;99.90;;;;;;10324608;28;20693;-72
2020/12/09 17:39:53;;;;;;;0.27;0.27;;;11.20;99.90;;;;;;10323538;28;20205;-72
2020/12/09 17:44:57;;;;;;;1.13;0.90;;;11.10;99.90;;;;;;10324094;28;20227;-73
2020/12/09 17:50:00;;;;;;;6.80;0.30;;;11.10;99.90;;;;;;10323897;28;20202;-73
2020/12/09 17:55:03;;;;;;;0.23;0.23;;;11.10;99.90;;;;;;10325290;28;20283;-72
2020/12/09 18:00:06;;;;;;;0.27;0.20;;;11.10;99.90;;;;;;10324298;28;20302;-74
2020/12/09 18:05:08;;;;;;;0.30;0.30;;;11.00;99.90;;;;;;10324336;28;20223;-72
2020/12/09 18:10:12;;;;;;;0.30;0.20;;;11.00;99.90;;;;;;10296240;28;20219;-74
2020/12/09 18:15:14;;;;;;;1.43;1.13;;;11.10;99.90;;;;;;10283006;28;20196;-70
2020/12/09 18:20:17;;;;;;;0.30;0.20;;;11.00;99.90;;;;;;10283748;28;20218;-74
2020/12/09 18:25:20;;;;;;;0.70;0.57;;;11.00;99.90;;;;;;10283945;28;20231;-73
2020/12/09 18:30:23;;;;;;;0.97;0.80;;;11.00;99.90;;;;;;10282563;28;20555;-74
2020/12/09 18:35:25;;;;;;;0.27;0.27;;;11.00;99.90;;;;;;10318331;28;20291;-75
2020/12/09 18:40:29;;;;;;;8.07;2.20;;;10.80;99.90;;;;;;10324071;28;20202;-74
2020/12/09 18:45:32;;;;;;;1.10;1.00;;;10.70;99.90;;;;;;10323304;28;20709;-75
2020/12/09 18:50:35;;;;;;;5.40;2.50;;;10.60;99.90;;;;;;10331135;28;20669;-76
2020/12/09 18:55:40;;;;;;;2.60;0.80;;;10.40;99.90;;;;;;10332360;28;20204;-74
2020/12/09 19:00:42;;;;;;;0.70;0.70;;;10.40;99.90;;;;;;10331400;28;20538;-74
2020/12/09 19:05:45;;;;;;;2.13;1.57;;;10.30;99.90;;;;;;10332279;28;20227;-74
2020/12/09 19:10:48;;;;;;;1.47;1.37;;;10.20;99.90;;;;;;10331273;28;20283;-75
2020/12/09 19:15:55;;;;;;;1.10;1.00;;;10.30;99.90;;;;;;10331214;28;20680;-73
2020/12/09 19:20:57;;;;;;;1.57;1.23;;;10.30;99.90;;;;;;10330334;28;20191;-73
2020/12/09 19:26:03;;;;;;;0.63;0.63;;;10.30;99.90;;;;;;10329918;28;20223;-73
2020/12/09 19:31:06;;;;;;;0.80;0.80;;;10.10;99.90;;;;;;10330322;28;20246;-73
2020/12/09 19:36:09;;;;;;;1.50;1.13;;;9.90;99.90;;;;;;10330795;28;20203;-75
2020/12/09 19:41:13;;;;;;;3.40;1.17;;;9.80;99.90;;;;;;10330437;28;20207;-74
2020/12/09 19:46:17;;;;;;;4.70;2.63;;;9.50;99.90;;;;;;10329451;28;20243;-73
2020/12/09 19:51:19;;;;;;;1.43;0.60;;;9.30;99.90;;;;;;10292508;28;20198;-73
2020/12/09 19:56:27;;;;;;;1.13;0.50;;;9.30;99.90;;;;;;10290928;28;20608;-73
2020/12/09 20:01:31;;;;;;;0.30;0.30;;;9.10;99.90;;;;;;10287885;28;20248;-73
2020/12/09 20:06:36;;;;;;;1.50;0.93;;;9.60;99.90;;;;;;10289329;28;20310;-75
2020/12/09 20:11:40;;;;;;;1.90;0.50;;;9.70;99.90;;;;;;10290409;28;20669;-74
2020/12/09 20:16:42;;;;;;;0.40;0.40;;;9.80;99.90;;;;;;10289021;28;20196;-67
2020/12/09 20:21:45;;;;;;;2.13;1.20;;;9.70;99.90;;;;;;10288962;28;20298;-74
2020/12/09 20:26:54;;;;;;;0.73;0.70;;;9.70;99.90;;;;;;10288096;28;20715;-74
2020/12/09 20:31:56;;;;;;;0.27;0.17;;;9.70;99.90;;;;;;10309381;28;20195;-74
2020/12/09 20:36:59;;;;;;;0.50;0.50;;;9.10;99.90;;;;;;10326692;28;20660;-73
2020/12/09 20:42:03;;;;;;;1.90;1.43;;;8.80;99.90;;;;;;10328284;28;20194;-74
2020/12/09 20:47:05;;;;;;;0.93;0.93;;;8.90;99.90;;;;;;10328319;28;20302;-74
2020/12/09 20:52:08;;;;;;;1.70;0.90;;;8.90;99.90;;;;;;10325710;28;20229;-75
2020/12/09 20:57:14;;;;;;;0.97;0.53;;;8.90;99.90;;;;;;10327988;28;20555;-74
2020/12/09 21:02:16;;;;;;;3.13;0.87;;;8.90;99.90;;;;;;10318985;28;20314;-73
2020/12/09 21:07:19;;;;;;;2.87;1.20;;;8.60;99.90;;;;;;10348547;28;20254;-72
2020/12/09 21:12:23;;;;;;;2.70;0.97;;;8.60;99.90;;;;;;10306655;28;20206;-73
2020/12/09 21:17:25;;;;;;;0.97;0.97;;;8.70;99.90;;;;;;10288826;28;20209;-73
2020/12/09 21:22:28;;;;;;;1.07;0.97;;;8.70;99.90;;;;;;10288421;28;20228;-71
2020/12/09 21:27:32;;;;;;;1.17;1.07;;;8.80;99.90;;;;;;10287918;28;20226;-74
2020/12/09 21:32:36;;;;;;;1.13;0.63;;;8.80;99.90;;;;;;10300831;28;20195;-75
2020/12/09 21:37:39;;;;;;;0.97;0.83;;;8.70;99.90;;;;;;10327993;28;20270;-72
2020/12/09 21:42:48;;;;;;;2.00;0.93;;;8.70;99.90;;;;;;10327832;28;20203;-73
2020/12/09 21:47:57;;;;;;;0.23;0.23;;;8.90;99.90;;;;;;10327414;28;20242;-73
2020/12/09 21:53:00;;;;;;;1.37;1.27;;;8.90;99.90;;;;;;10326291;28;20278;-73
2020/12/09 21:58:03;;;;;;;0.67;0.67;;;8.80;99.90;;;;;;10327114;28;20199;-74
2020/12/09 22:03:06;;;;;;;0.73;0.63;;;8.70;99.90;;;;;;10327249;28;20378;-72
2020/12/09 22:08:09;;;;;;;0.40;0.23;;;8.60;99.90;;;;;;10326199;28;20719;-72
2020/12/09 22:13:12;;;;;;;1.13;0.57;;;8.60;99.90;;;;;;10309736;28;20192;-72
2020/12/09 22:18:15;;;;;;;1.00;0.67;;;8.60;99.90;;;;;;10325803;28;20206;-72
2020/12/09 22:23:17;;;;;;;1.03;0.57;;;8.60;99.90;;;;;;10312825;28;20192;-73
2020/12/09 22:28:21;;;;;;;0.30;0.30;;;8.70;99.90;;;;;;10330541;28;20221;-72
2020/12/09 22:33:23;;;;;;;0.57;0.57;;;8.70;99.90;;;;;;10334554;28;20558;-73
2020/12/09 22:38:26;;;;;;;1.60;0.80;;;8.50;99.90;;;;;;10334494;28;20282;-71
2020/12/09 22:43:29;;;;;;;0.40;0.40;;;8.40;99.90;;;;;;10334578;28;20222;-74
2020/12/09 22:48:32;;;;;;;0.20;0.10;;;8.40;99.90;;;;;;10334528;28;20287;-73
2020/12/09 22:53:35;;;;;;;0.20;0.17;;;8.20;99.90;;;;;;10334005;28;20606;-74
2020/12/09 22:58:40;;;;;;;1.67;1.00;;;8.30;99.90;;;;;;10334673;28;20564;-72
2020/12/09 23:03:43;;;;;;;2.53;0.47;;;8.10;99.90;;;;;;10333243;28;20237;-72
2020/12/09 23:08:47;;;;;;;0.70;0.43;;;7.70;99.90;;;;;;10333743;28;20199;-72
2020/12/09 23:13:50;;;;;;;0.23;0.23;;;7.60;99.90;;;;;;10333223;28;20210;-72
2020/12/09 23:18:53;;;;;;;0.80;0.80;;;7.40;99.90;;;;;;10333345;28;20198;-72
2020/12/09 23:23:56;;;;;;;2.63;1.63;;;7.10;99.90;;;;;;10331696;28;20220;-72
2020/12/09 23:28:59;;;;;;;0.40;0.30;;;7.50;99.90;;;;;;10331872;28;20291;-70
2020/12/09 23:34:02;;;;;;;0.60;0.40;;;7.90;99.90;;;;;;10331964;28;20273;-71
2020/12/09 23:39:06;;;;;;;0.20;0.10;;;8.10;99.90;;;;;;10332388;28;20208;-72
2020/12/09 23:44:09;;;;;;;0.43;0.43;;;8.30;99.90;;;;;;10332169;28;20285;-71
2020/12/09 23:49:12;;;;;;;0.20;0.10;;;8.40;99.90;;;;;;10331831;28;20623;-71
2020/12/09 23:54:15;;;;;;;0.20;0.20;;;8.50;99.90;;;;;;10331690;28;20198;-70
2020/12/09 23:59:18;;;;;;;0.20;0.20;;;8.50;99.90;;;;;;10317641;28;20196;-71
